Time;durP1;ratioP1;P1;durP2;ratioP2;P2;SDS_P1;SDS_P2;PMS_P1;PMS_P2;Temp;Humidity;BMP_temperature;BMP_pressure;BME280_temperature;BME280_humidity;BME280_pressure;Samples;Min_cycle;Max_cycle;Signal;HPM_P1;HPM_P2
2021/09/16 00:02:57;;;;;;;7.40;5.20;;;;;;;24.80;47.51;100990.63;110265;1242;71229;-91
2021/09/16 00:06:01;;;;;;;7.00;5.30;;;;;;;24.80;47.57;100988.29;110320;1242;75293;-84
2021/09/16 00:08:54;;;;;;;;;;;;;;;;;;;;;
2021/09/16 00:11:51;;;;;;;8.30;5.30;;;;;;;24.80;47.49;100989.17;110433;1232;61050;-86
2021/09/16 00:15:07;;;;;;;;;;;;;;;;;;;;;
2021/09/16 00:18:07;;;;;;;7.00;5.30;;;;;;;24.80;47.75;100984.91;110301;1242;75668;-88
2021/09/16 00:21:04;;;;;;;6.60;5.20;;;;;;;24.79;47.86;100983.52;110360;1235;61079;-87
2021/09/16 00:24:11;;;;;;;6.80;5.40;;;;;;;24.79;48.07;100985.66;110389;1239;61019;-88
2021/09/16 00:27:17;;;;;;;6.60;5.20;;;;;;;24.79;48.00;100987.86;110414;1237;73436;-89
2021/09/16 00:30:09;;;;;;;7.40;5.10;;;;;;;24.79;48.12;100987.70;110680;1237;75282;-92
2021/09/16 00:33:15;;;;;;;7.40;5.30;;;;;;;24.79;48.37;100987.54;110621;1236;61075;-87
2021/09/16 00:36:22;;;;;;;7.50;5.00;;;;;;;24.78;48.31;100989.22;110605;1230;61104;-88
2021/09/16 00:39:38;;;;;;;7.40;5.30;;;;;;;24.78;48.59;100992.27;110636;1233;71224;-86
2021/09/16 00:42:44;;;;;;;6.80;5.10;;;;;;;24.78;48.73;100990.63;110790;1229;75390;-90
2021/09/16 00:46:11;;;;;;;8.00;5.60;;;;;;;24.78;48.71;100989.60;110339;1234;61329;-91
2021/09/16 00:49:09;;;;;;;6.20;4.70;;;;;;;24.77;48.76;100987.30;109923;1241;61061;-88
2021/09/16 00:52:46;;;;;;;6.30;5.00;;;;;;;24.77;48.85;100988.75;109962;1241;71269;-89
2021/09/16 00:55:52;;;;;;;6.50;5.00;;;;;;;24.77;48.74;100987.70;109890;1240;74497;-88
2021/09/16 00:58:56;;;;;;;7.30;5.10;;;;;;;24.77;48.80;100984.98;109906;1245;61029;-89
2021/09/16 01:01:45;;;;;;;6.20;4.90;;;;;;;24.77;48.73;100979.23;109812;1249;61149;-88
2021/09/16 01:04:54;;;;;;;7.10;5.30;;;;;;;24.77;48.72;100975.96;109883;1247;72662;-92
2021/09/16 01:08:00;;;;;;;7.30;4.90;;;;;;;24.77;48.57;100975.08;109782;1241;75590;-81
2021/09/16 01:10:59;;;;;;;6.80;5.20;;;;;;;24.76;48.71;100976.02;109588;1245;61052;-87
2021/09/16 01:15:08;;;;;;;7.70;5.50;;;;;;;24.80;48.86;100971.92;113357;1206;599332;-82
2021/09/16 01:18:25;;;;;;;6.70;5.30;;;;;;;24.78;48.72;100968.32;113265;1211;72234;-82
2021/09/16 01:21:39;;;;;;;6.50;5.20;;;;;;;24.78;48.74;100970.14;113140;1215;60900;-87
2021/09/16 01:24:37;;;;;;;7.10;5.00;;;;;;;24.77;48.79;100974.34;113027;1217;61352;-78
2021/09/16 01:31:03;;;;;;;7.70;5.20;;;;;;;24.77;48.69;100975.95;112876;1219;74865;-84
2021/09/16 01:33:50;;;;;;;6.60;4.70;;;;;;;24.77;48.67;100973.45;112664;1222;60203;-82
2021/09/16 01:37:05;;;;;;;5.90;5.00;;;;;;;24.78;48.70;100973.04;112526;1222;61181;-86
2021/09/16 01:39:58;;;;;;;6.70;5.50;;;;;;;24.77;48.78;100970.39;112543;1222;72472;-82
2021/09/16 01:43:12;;;;;;;;;;;;;;;;;;;;;
2021/09/16 01:45:58;;;;;;;;;;;;;;;24.77;48.77;100969.70;112270;1225;61393;-81
2021/09/16 01:49:07;;;;;;;6.00;5.00;;;;;;;24.74;48.68;100969.56;112235;1224;59385;-86
2021/09/16 01:52:21;;;;;;;6.90;5.20;;;;;;;24.75;48.86;100971.27;112178;1225;74757;-86
2021/09/16 01:55:29;;;;;;;;;;;;;;;;;;;;;
2021/09/16 01:58:46;;;;;;;7.40;5.20;;;;;;;24.74;48.72;100972.77;112652;1219;59580;-79
2021/09/16 02:01:45;;;;;;;9.10;5.20;;;;;;;24.75;48.85;100969.67;112919;1219;61265;-89
2021/09/16 02:04:51;;;;;;;6.70;5.00;;;;;;;24.74;48.80;100971.66;112977;1218;72460;-86
2021/09/16 02:08:17;;;;;;;7.10;5.00;;;;;;;24.74;48.83;100974.92;112903;1218;71657;-85
2021/09/16 02:11:50;;;;;;;7.30;5.10;;;;;;;24.74;48.86;100970.09;112946;1216;60185;-84
2021/09/16 02:14:49;;;;;;;;;;;;;;;;;;;;;
2021/09/16 02:18:18;;;;;;;;;;;;;;;;;;;;;
2021/09/16 02:21:26;;;;;;;6.90;5.10;;;;;;;24.74;48.84;100976.73;112982;1217;72911;-84
2021/09/16 02:24:15;;;;;;;7.00;5.30;;;;;;;24.74;48.85;100971.34;113008;1218;60860;-86
2021/09/16 02:27:39;;;;;;;6.00;4.90;;;;;;;24.74;48.75;100963.77;112999;1202;59341;-85
2021/09/16 02:30:55;;;;;;;6.50;4.90;;;;;;;24.74;48.63;100966.51;112976;1217;72578;-81
2021/09/16 02:34:01;;;;;;;5.90;5.20;;;;;;;24.74;48.65;100968.30;112878;1220;74340;-86
2021/09/16 02:37:13;;;;;;;7.80;5.60;;;;;;;24.74;48.69;100970.79;112881;1219;59459;-83
2021/09/16 02:40:25;;;;;;;7.20;4.80;;;;;;;24.74;48.72;100971.00;112516;1222;60152;-83
2021/09/16 02:43:33;;;;;;;6.70;5.20;;;;;;;24.74;48.91;100971.73;111783;1228;73317;-79
2021/09/16 02:46:46;;;;;;;;;;;;;;;;;;;;;
2021/09/16 02:49:28;;;;;;;7.50;5.20;;;;;;;24.74;48.68;100970.61;112169;1228;60189;-82
2021/09/16 02:53:02;;;;;;;6.60;5.30;;;;;;;24.75;48.77;100969.10;111786;1228;60040;-81
2021/09/16 02:56:12;;;;;;;;;;;;;;;;;;;;;
2021/09/16 02:59:06;;;;;;;7.00;5.20;;;;;;;24.74;48.81;100965.58;111851;1227;74004;-86
2021/09/16 03:02:13;;;;;;;;;;;;;;;;;;;;;
2021/09/16 03:05:21;;;;;;;6.30;4.80;;;;;;;24.74;48.92;100966.86;111773;1228;59750;-89
2021/09/16 03:08:38;;;;;;;;;;;;;;;;;;;;;
2021/09/16 03:11:56;;;;;;;6.40;5.10;;;;;;;24.74;48.83;100969.57;111251;1232;73147;-82
2021/09/16 03:14:52;;;;;;;;;;;;;;;;;;;;;
2021/09/16 03:17:39;;;;;;;7.20;5.00;;;;;;;24.73;48.72;100972.27;111514;1230;61381;-83
2021/09/16 03:20:56;;;;;;;6.80;5.20;;;;;;;24.73;49.01;100974.63;111928;1225;72355;-89
2021/09/16 03:24:17;;;;;;;7.50;5.70;;;;;;;24.73;48.78;100977.52;112086;1226;72931;-83
2021/09/16 03:27:08;;;;;;;6.30;5.20;;;;;;;24.73;48.89;100983.13;111829;1227;59963;-86
2021/09/16 03:30:39;;;;;;;;;;;;;;;;;;;;;
2021/09/16 03:33:48;;;;;;;6.40;5.30;;;;;;;24.72;48.81;100986.77;111588;1230;71108;-85
2021/09/16 03:36:46;;;;;;;8.90;4.90;;;;;;;24.73;48.78;100986.92;111138;1232;73899;-87
2021/09/16 03:39:50;;;;;;;7.70;5.40;;;;;;;24.72;48.76;100986.41;111268;1232;60160;-84
2021/09/16 03:42:56;;;;;;;6.90;4.90;;;;;;;24.73;48.61;100986.19;111174;1232;60060;-87
2021/09/16 03:49:03;;;;;;;7.10;5.20;;;;;;;24.72;48.62;100994.52;111057;1233;73816;-86
2021/09/16 03:52:05;;;;;;;;;;;;;;;;;;;;;
2021/09/16 03:54:58;;;;;;;7.00;5.40;;;;;;;24.72;48.49;100994.17;110957;1235;61134;-86
2021/09/16 03:58:14;;;;;;;8.00;5.50;;;;;;;24.72;48.62;100993.48;110770;1236;72474;-83
2021/09/16 04:01:17;;;;;;;;;;;;;;;;;;;;;
2021/09/16 04:04:34;;;;;;;;;;;;;;;;;;;;;
2021/09/16 04:07:49;;;;;;;8.60;5.80;;;;;;;24.71;48.91;100995.41;110718;1237;60108;-81
2021/09/16 04:10:35;;;;;;;8.20;5.30;;;;;;;24.67;48.88;100994.80;110749;1236;72583;-85
2021/09/16 04:13:43;;;;;;;8.80;6.10;;;;;;;24.65;48.69;101001.27;110636;1238;74000;-85
2021/09/16 04:16:35;;;;;;;8.60;6.10;;;;;;;24.63;48.81;101003.95;110910;1233;59973;-81
2021/09/16 04:20:00;;;;;;;12.00;6.40;;;;;;;24.59;48.56;101005.47;110739;1236;59406;-82
2021/09/16 04:22:56;;;;;;;8.30;6.20;;;;;;;24.57;48.46;101006.77;110813;1236;72500;-83
2021/09/16 04:29:09;;;;;;;9.80;6.20;;;;;;;24.54;48.10;101008.84;111056;1233;61710;-81
2021/09/16 04:32:12;;;;;;;11.30;7.00;;;;;;;24.53;47.93;101012.97;111147;1231;60879;-82
2021/09/16 04:35:06;;;;;;;10.10;6.60;;;;;;;24.53;47.72;101013.05;111489;1230;72387;-81
2021/09/16 04:38:15;;;;;;;;;;;;;;;;;;;;;
2021/09/16 04:41:24;;;;;;;11.20;7.60;;;;;;;24.50;47.64;101012.86;111502;1228;60211;-82
2021/09/16 04:44:02;;;;;;;11.00;7.80;;;;;;;24.50;47.20;101011.45;111617;1225;60350;-82
2021/09/16 04:47:25;;;;;;;11.20;7.20;;;;;;;24.48;47.13;101004.42;111998;1224;71846;-83
2021/09/16 04:49:50;;;;;;;13.60;8.10;;;;;;;24.45;47.02;101001.05;111590;1222;74432;-81
2021/09/16 04:52:27;;;;;;;15.80;8.20;;;;;;;24.44;47.14;101003.45;111992;1221;59791;-84
2021/09/16 04:55:04;;;;;;;17.10;8.50;;;;;;;24.42;46.91;101002.39;112433;1221;61597;-81
2021/09/16 04:57:32;;;;;;;13.20;6.50;;;;;;;24.40;46.87;101006.90;112352;1219;72371;-80
2021/09/16 05:00:18;;;;;;;15.90;7.30;;;;;;;24.39;46.88;101009.16;112476;1216;59974;-83
2021/09/16 05:02:44;;;;;;;13.20;7.30;;;;;;;24.39;46.85;101011.98;113419;1218;60605;-80
2021/09/16 05:05:10;;;;;;;21.00;8.90;;;;;;;24.39;46.80;101015.76;113550;1209;57663;-79
2021/09/16 05:07:36;;;;;;;16.90;8.40;;;;;;;24.34;46.74;101019.42;113872;1208;59497;-81
2021/09/16 05:10:13;;;;;;;16.40;8.00;;;;;;;24.32;46.78;101020.46;113039;1208;59623;-80
2021/09/16 05:12:44;;;;;;;13.40;7.90;;;;;;;24.35;46.75;101020.11;113230;1208;59938;-81
2021/09/16 05:15:35;;;;;;;14.40;8.10;;;;;;;24.35;46.73;101018.94;112805;1211;59262;-80
2021/09/16 05:18:18;;;;;;;12.80;7.70;;;;;;;24.37;46.71;101020.81;112878;1211;72163;-80
2021/09/16 05:20:57;;;;;;;15.20;8.30;;;;;;;24.37;46.59;101021.30;112900;1211;72686;-80
2021/09/16 05:23:39;;;;;;;13.30;9.00;;;;;;;24.37;46.51;101022.24;112840;1211;60062;-80
2021/09/16 05:26:05;;;;;;;16.40;8.90;;;;;;;24.37;46.42;101023.83;113589;1211;60172;-80
2021/09/16 05:28:31;;;;;;;15.40;8.60;;;;;;;24.38;46.32;101022.19;112784;1212;59546;-79
2021/09/16 05:31:12;;;;;;;18.10;8.90;;;;;;;24.38;46.27;101023.98;112863;1211;72678;-80
2021/09/16 05:33:37;;;;;;;;;;;;;;;24.37;46.16;101022.76;113194;1211;61055;-80
2021/09/16 05:36:09;;;;;;;15.70;9.00;;;;;;;24.34;46.12;101020.29;112964;1211;59407;-81
2021/09/16 05:39:08;;;;;;;;;;;;;;;;;;;;;
2021/09/16 05:41:35;;;;;;;17.40;9.50;;;;;;;24.34;46.06;101014.91;113595;1211;72611;-81
2021/09/16 05:44:01;;;;;;;17.40;9.80;;;;;;;24.34;45.97;101014.73;112591;1213;59577;-80
2021/09/16 05:46:34;;;;;;;17.30;9.30;;;;;;;24.35;45.90;101016.51;112847;1210;59389;-82
2021/09/16 05:49:15;;;;;;;;;;;;;;;;;;;;;
2021/09/16 05:51:46;;;;;;;21.30;10.40;;;;;;;24.36;45.85;101023.77;112789;1211;72873;-79
2021/09/16 05:54:20;;;;;;;24.00;11.70;;;;;;;24.34;45.83;101026.41;113205;1208;60240;-80
2021/09/16 05:56:59;;;;;;;27.90;11.70;;;;;;;24.27;45.77;101028.06;112924;1209;59295;-82
2021/09/16 05:59:24;;;;;;;;;;;;;;;24.18;45.74;101029.53;112858;1208;74057;-80
2021/09/16 06:01:57;;;;;;;32.30;11.00;;;;;;;24.08;45.92;101032.64;113133;1208;59342;-80
2021/09/16 06:04:24;;;;;;;24.50;11.20;;;;;;;24.05;46.04;101033.80;113366;1208;60052;-79
2021/09/16 06:06:50;;;;;;;19.20;10.00;;;;;;;24.06;46.07;101040.95;113464;1207;60100;-79
2021/09/16 06:09:25;;;;;;;19.00;12.00;;;;;;;24.09;46.13;101039.39;113451;1207;58969;-79
2021/09/16 06:12:04;;;;;;;;;;;;;;;;;;;;;
2021/09/16 06:14:31;;;;;;;18.50;10.70;;;;;;;24.09;45.99;101038.33;113214;1207;62450;-79
2021/09/16 06:17:03;;;;;;;17.60;9.40;;;;;;;24.10;46.07;101035.03;113929;1207;60149;-80
2021/09/16 06:19:41;;;;;;;;;;;;;;;;;;;;;
2021/09/16 06:22:24;;;;;;;;;;;;;;;24.15;45.94;101041.80;113209;1208;74757;-81
2021/09/16 06:25:23;;;;;;;17.80;10.40;;;;;;;24.14;45.94;101041.87;113166;1207;60268;-81
2021/09/16 06:27:53;;;;;;;22.30;11.40;;;;;;;24.16;45.81;101039.76;112954;1207;60621;-79
2021/09/16 06:30:41;;;;;;;22.20;11.70;;;;;;;24.15;45.85;101036.45;113149;1208;72325;-80
2021/09/16 06:33:29;;;;;;;18.40;10.90;;;;;;;24.12;45.90;101036.68;113462;1207;73623;-82
2021/09/16 06:36:18;;;;;;;19.10;11.20;;;;;;;24.14;45.90;101034.02;113392;1208;60809;-83
2021/09/16 06:38:52;;;;;;;16.70;10.40;;;;;;;24.17;45.88;101034.31;113379;1208;61087;-82
2021/09/16 06:41:18;;;;;;;24.10;12.40;;;;;;;24.19;45.83;101033.80;113288;1208;71470;-79
2021/09/16 06:44:07;;;;;;;22.90;11.60;;;;;;;24.20;45.85;101036.52;113163;1207;60223;-80
2021/09/16 06:46:48;;;;;;;22.50;11.30;;;;;;;24.20;45.74;101037.63;113187;1209;60149;-81
2021/09/16 06:49:36;;;;;;;18.50;10.90;;;;;;;24.22;45.83;101039.12;113128;1207;59975;-83
2021/09/16 06:52:04;;;;;;;24.60;12.90;;;;;;;24.24;45.83;101043.42;113039;1208;72492;-79
2021/09/16 06:54:38;;;;;;;28.30;13.70;;;;;;;24.24;45.87;101043.96;113014;1207;73693;-80
2021/09/16 06:57:15;;;;;;;28.20;13.40;;;;;;;24.20;45.80;101044.81;112863;1207;60635;-81
2021/09/16 06:59:40;;;;;;;26.40;12.40;;;;;;;24.15;45.85;101042.55;113550;1208;60244;-80
2021/09/16 07:02:25;;;;;;;25.20;11.90;;;;;;;24.14;46.04;101044.27;112887;1208;72567;-80
2021/09/16 07:04:51;;;;;;;24.50;13.20;;;;;;;24.16;46.12;101041.35;113118;1207;74996;-79
2021/09/16 07:07:18;;;;;;;24.00;11.50;;;;;;;24.17;46.18;101042.95;113246;1208;58942;-80
2021/09/16 07:10:08;;;;;;;21.60;11.20;;;;;;;24.20;46.35;101043.05;112767;1208;60118;-80
2021/09/16 07:12:33;;;;;;;22.80;11.60;;;;;;;24.23;46.39;101044.05;114073;1211;73492;-79
2021/09/16 07:14:59;;;;;;;21.90;10.00;;;;;;;24.28;46.52;101044.38;114146;1211;58772;-79
2021/09/16 07:17:25;;;;;;;20.80;11.60;;;;;;;24.32;46.64;101043.48;113463;1212;60146;-79
2021/09/16 07:20:00;;;;;;;24.40;11.80;;;;;;;24.36;46.66;101039.55;112652;1211;60130;-80
2021/09/16 07:22:25;;;;;;;21.30;11.20;;;;;;;24.39;46.65;101040.43;112675;1211;73531;-80
2021/09/16 07:24:56;;;;;;;20.30;11.40;;;;;;;24.41;46.57;101043.67;112808;1211;60164;-82
2021/09/16 07:27:33;;;;;;;18.70;10.90;;;;;;;24.43;46.53;101043.89;112797;1211;61061;-80
2021/09/16 07:30:24;;;;;;;29.60;12.90;;;;;;;24.45;46.50;101047.86;112754;1212;61136;-82
2021/09/16 07:32:50;;;;;;;19.50;12.30;;;;;;;24.44;46.40;101053.48;112520;1213;72231;-82
2021/09/16 07:35:22;;;;;;;21.80;12.30;;;;;;;24.41;46.25;101058.63;112432;1214;60111;-83
2021/09/16 07:37:54;;;;;;;21.10;11.60;;;;;;;24.35;46.16;101056.23;112713;1214;61166;-81
2021/09/16 07:40:29;;;;;;;31.60;12.00;;;;;;;24.32;46.05;101057.49;112660;1213;60326;-80
2021/09/16 07:46:30;;;;;;;;;;;;;;;;;;;;;
2021/09/16 07:49:09;;;;;;;26.10;11.00;;;;;;;24.33;45.98;101059.48;112837;1210;61493;-82
2021/09/16 07:51:38;;;;;;;26.10;10.60;;;;;;;24.35;45.92;101058.90;112921;1208;59825;-80
2021/09/16 07:54:12;;;;;;;25.50;12.00;;;;;;;24.39;45.98;101062.91;112788;1209;73161;-80
2021/09/16 07:56:41;;;;;;;30.50;10.90;;;;;;;24.40;45.96;101061.55;112804;1209;73730;-81
2021/09/16 07:59:12;;;;;;;22.30;11.20;;;;;;;24.42;46.16;101058.56;112729;1209;60216;-79
2021/09/16 08:02:23;;;;;;;;;;;;;;;;;;;;;
2021/09/16 08:04:54;;;;;;;29.50;12.00;;;;;;;24.44;46.29;101056.35;113497;1208;72744;-81
2021/09/16 08:07:20;;;;;;;26.90;11.10;;;;;;;24.44;46.27;101057.85;113223;1209;59753;-80
2021/09/16 08:09:51;;;;;;;23.20;11.10;;;;;;;24.42;46.29;101055.64;112965;1209;60268;-80
2021/09/16 08:12:18;;;;;;;18.40;10.90;;;;;;;24.40;46.26;101050.03;113544;1208;60427;-80
2021/09/16 08:14:55;;;;;;;21.40;10.20;;;;;;;24.38;46.05;101050.59;113067;1209;60130;-82
2021/09/16 08:17:49;;;;;;;16.90;8.90;;;;;;;24.36;45.98;101047.34;112946;1210;73638;-79
2021/09/16 08:20:41;;;;;;;14.60;9.30;;;;;;;24.40;45.95;101047.01;112945;1210;60385;-80
2021/09/16 08:23:29;;;;;;;18.70;9.80;;;;;;;24.44;46.05;101043.05;112898;1210;60191;-79
2021/09/16 08:26:18;;;;;;;18.60;9.80;;;;;;;24.47;45.84;101044.10;112897;1211;72825;-79
2021/09/16 08:28:53;;;;;;;20.10;9.90;;;;;;;24.49;45.89;101046.98;112791;1213;74679;-80
2021/09/16 08:31:22;;;;;;;25.50;10.60;;;;;;;24.53;45.80;101047.27;112923;1211;60063;-79
2021/09/16 08:33:53;;;;;;;18.90;9.50;;;;;;;24.54;45.81;101041.02;112860;1211;60273;-79
2021/09/16 08:36:25;;;;;;;18.40;10.40;;;;;;;24.55;45.76;101041.60;112843;1210;73017;-81
2021/09/16 08:39:00;;;;;;;34.10;10.80;;;;;;;24.57;45.82;101039.86;113800;1211;74606;-84
2021/09/16 08:41:26;;;;;;;26.50;10.30;;;;;;;24.58;45.85;101035.04;112800;1211;60156;-81
2021/09/16 08:43:53;;;;;;;25.60;10.10;;;;;;;24.60;45.83;101031.68;113037;1212;60200;-82
2021/09/16 08:46:18;;;;;;;16.50;9.50;;;;;;;24.60;45.98;101028.41;113071;1211;60207;-81
2021/09/16 08:49:04;;;;;;;14.40;8.80;;;;;;;24.62;45.90;101030.11;113073;1211;60081;-81
2021/09/16 08:51:33;;;;;;;23.60;9.90;;;;;;;24.64;45.88;101030.48;113165;1210;60585;-81
2021/09/16 08:54:19;;;;;;;22.80;10.50;;;;;;;24.65;45.83;101029.87;113094;1209;60305;-80
2021/09/16 08:57:04;;;;;;;24.90;10.60;;;;;;;24.66;45.89;101029.27;112573;1209;72424;-80
2021/09/16 08:59:30;;;;;;;25.80;11.00;;;;;;;24.68;46.07;101024.77;113276;1208;74713;-82
2021/09/16 09:01:59;;;;;;;22.90;10.30;;;;;;;24.70;46.20;101023.67;113076;1209;59391;-81
2021/09/16 09:04:25;;;;;;;33.90;10.80;;;;;;;24.72;46.20;101022.45;113414;1208;60652;-80
2021/09/16 09:07:01;;;;;;;26.50;10.60;;;;;;;24.73;46.19;101022.73;113571;1207;59867;-81
2021/09/16 09:09:27;;;;;;;21.90;10.60;;;;;;;24.74;46.11;101018.99;114361;1207;74572;-80
2021/09/16 09:12:16;;;;;;;18.30;10.20;;;;;;;24.76;46.14;101018.16;114467;1208;58494;-80
2021/09/16 09:14:43;;;;;;;;;;;;;;;24.77;46.06;101020.23;114125;1211;59928;-80
2021/09/16 09:17:19;;;;;;;18.60;9.70;;;;;;;24.76;45.86;101019.27;114088;1211;63785;-80
2021/09/16 09:19:45;;;;;;;20.30;10.00;;;;;;;24.78;45.58;101021.27;114018;1211;66617;-80
2021/09/16 09:22:10;;;;;;;18.70;8.70;;;;;;;24.79;45.47;101011.11;114148;1211;58739;-80
2021/09/16 09:24:39;;;;;;;16.60;8.90;;;;;;;24.82;45.25;101008.69;113726;1211;58931;-80
2021/09/16 09:27:51;;;;;;;19.40;9.00;;;;;;;24.83;44.94;101007.85;113526;1211;73501;-81
2021/09/16 09:30:31;;;;;;;15.80;9.20;;;;;;;24.85;44.68;101005.39;112928;1214;73637;-79
2021/09/16 09:33:00;;;;;;;20.30;9.40;;;;;;;24.87;44.65;101005.94;112966;1214;60619;-81
2021/09/16 09:35:38;;;;;;;;;;;;;;;24.87;44.55;101003.52;113818;1216;60247;-80
2021/09/16 09:38:21;;;;;;;26.20;8.60;;;;;;;24.84;44.48;100999.81;113823;1214;72388;-80
2021/09/16 09:40:48;;;;;;;22.60;9.10;;;;;;;24.88;44.40;100998.10;113059;1213;73740;-80
2021/09/16 09:43:27;;;;;;;17.20;8.80;;;;;;;24.88;44.39;100996.58;112625;1216;60697;-79
2021/09/16 09:46:14;;;;;;;21.00;9.00;;;;;;;24.90;44.22;100994.08;112634;1214;60462;-81
2021/09/16 09:49:06;;;;;;;18.40;8.70;;;;;;;24.91;44.29;100993.65;112896;1214;71794;-79
2021/09/16 09:51:55;;;;;;;29.40;9.10;;;;;;;24.92;44.17;100996.11;112727;1212;73701;-84
2021/09/16 09:54:48;;;;;;;22.80;9.00;;;;;;;24.93;44.16;100993.48;112788;1215;60308;-81
2021/09/16 09:57:15;;;;;;;23.40;9.20;;;;;;;24.99;44.37;100992.13;112829;1216;60143;-81
2021/09/16 10:00:10;;;;;;;18.60;9.10;;;;;;;25.01;44.51;100988.39;112828;1214;73133;-81
2021/09/16 10:02:39;;;;;;;22.60;8.30;;;;;;;25.02;44.64;100984.14;112564;1216;75106;-80
2021/09/16 10:05:37;;;;;;;17.60;8.20;;;;;;;25.02;44.65;100983.55;112488;1211;60189;-80
2021/09/16 10:08:11;;;;;;;17.70;8.50;;;;;;;25.02;44.70;100979.42;112965;1212;60191;-81
2021/09/16 10:10:43;;;;;;;17.60;7.90;;;;;;;25.02;44.68;100973.65;112430;1212;73598;-81
2021/09/16 10:13:11;;;;;;;14.50;7.80;;;;;;;25.03;44.57;100972.54;112661;1212;74817;-82
2021/09/16 10:16:10;;;;;;;16.20;7.80;;;;;;;25.03;44.45;100973.77;112741;1211;60190;-81
2021/09/16 10:18:49;;;;;;;19.90;8.00;;;;;;;25.02;44.19;100970.73;112867;1211;60574;-81
2021/09/16 10:21:33;;;;;;;17.10;7.90;;;;;;;25.02;44.00;100968.81;113002;1211;72527;-84
2021/09/16 10:24:13;;;;;;;21.20;8.50;;;;;;;25.02;44.04;100967.21;113091;1211;73542;-82
2021/09/16 10:27:11;;;;;;;13.50;7.10;;;;;;;25.01;43.90;100967.61;113076;1212;60175;-81
2021/09/16 10:30:02;;;;;;;13.60;7.80;;;;;;;25.01;43.50;100958.99;112981;1214;61242;-80
2021/09/16 10:32:51;;;;;;;16.90;7.70;;;;;;;25.01;43.06;100957.38;113135;1212;73416;-80
2021/09/16 10:35:49;;;;;;;13.40;7.50;;;;;;;25.00;43.25;100954.53;113189;1209;73469;-82
2021/09/16 10:38:47;;;;;;;12.90;7.90;;;;;;;25.00;43.01;100949.70;113222;1209;60215;-84
2021/09/16 10:41:39;;;;;;;17.70;7.90;;;;;;;25.00;42.93;100948.13;113164;1209;60235;-81
2021/09/16 10:44:27;;;;;;;20.00;8.40;;;;;;;25.01;42.88;100946.41;112932;1209;72763;-81
2021/09/16 10:47:00;;;;;;;15.10;8.20;;;;;;;25.00;42.96;100943.59;112693;1214;73511;-80
2021/09/16 10:49:57;;;;;;;19.80;8.40;;;;;;;25.01;43.03;100942.98;112981;1213;61206;-82
2021/09/16 10:52:43;;;;;;;21.20;8.70;;;;;;;25.01;43.02;100943.68;112560;1216;60254;-80
2021/09/16 10:55:12;;;;;;;16.90;8.40;;;;;;;25.04;42.97;100938.58;112643;1217;72852;-80
2021/09/16 10:57:40;;;;;;;15.40;8.80;;;;;;;25.08;42.66;100936.83;112732;1217;74248;-81
2021/09/16 11:00:17;;;;;;;14.70;8.80;;;;;;;25.09;42.22;100935.23;112861;1217;60106;-81
2021/09/16 11:02:47;;;;;;;17.80;8.20;;;;;;;25.12;41.85;100931.45;112748;1218;60178;-82
2021/09/16 11:05:20;;;;;;;15.40;8.10;;;;;;;25.13;41.61;100928.11;112869;1218;72113;-81
2021/09/16 11:07:50;;;;;;;16.60;7.90;;;;;;;25.14;41.33;100926.41;112863;1216;74629;-81
2021/09/16 11:10:24;;;;;;;12.80;8.70;;;;;;;25.16;41.11;100921.89;113769;1215;60728;-80
2021/09/16 11:12:57;;;;;;;12.90;7.60;;;;;;;25.18;41.00;100917.95;113789;1215;58238;-80
2021/09/16 11:15:29;;;;;;;17.30;8.10;;;;;;;25.19;40.90;100919.10;113114;1214;73357;-81
2021/09/16 11:18:26;;;;;;;14.70;8.00;;;;;;;25.21;40.81;100914.58;112848;1216;74514;-81
2021/09/16 11:20:57;;;;;;;17.90;8.50;;;;;;;25.21;40.80;100917.24;112701;1218;60702;-81
2021/09/16 11:23:57;;;;;;;15.10;8.50;;;;;;;25.22;40.88;100914.67;112695;1214;60785;-80
2021/09/16 11:26:51;;;;;;;22.20;8.20;;;;;;;25.20;40.99;100909.98;112978;1214;73251;-81
2021/09/16 11:29:26;;;;;;;14.40;7.70;;;;;;;25.19;41.35;100907.55;112857;1212;74829;-82
2021/09/16 11:32:15;;;;;;;15.50;8.20;;;;;;;25.19;41.24;100901.58;112970;1211;60095;-80
2021/09/16 11:35:07;;;;;;;11.30;7.60;;;;;;;25.20;40.98;100896.08;113053;1211;61555;-84
2021/09/16 11:37:41;;;;;;;13.20;7.50;;;;;;;25.20;41.02;100899.59;113131;1210;74601;-82
2021/09/16 11:40:18;;;;;;;13.00;7.20;;;;;;;25.19;40.93;100895.31;113054;1211;72478;-79
2021/09/16 11:43:04;;;;;;;11.00;7.40;;;;;;;25.20;40.65;100892.55;113130;1212;60368;-82
2021/09/16 11:46:15;;;;;;;14.40;7.90;;;;;;;25.20;40.53;100892.38;113090;1211;60647;-81
2021/09/16 11:48:41;;;;;;;11.70;8.00;;;;;;;25.20;40.40;100884.23;113135;1211;72378;-80
2021/09/16 11:51:11;;;;;;;18.50;8.30;;;;;;;25.20;40.55;100880.70;112536;1211;74528;-81
2021/09/16 11:53:38;;;;;;;19.10;8.40;;;;;;;25.19;40.97;100878.89;112742;1212;60235;-82
2021/09/16 11:56:06;;;;;;;19.40;8.40;;;;;;;25.18;41.15;100875.38;113430;1210;59004;-80
2021/09/16 11:58:33;;;;;;;14.70;7.80;;;;;;;25.19;41.30;100875.88;114112;1208;72333;-80
2021/09/16 12:01:00;;;;;;;13.60;7.90;;;;;;;25.19;41.44;100873.51;114233;1208;74500;-80
2021/09/16 12:03:27;;;;;;;14.90;8.40;;;;;;;25.21;41.25;100864.36;114490;1207;60131;-80
2021/09/16 12:06:00;;;;;;;19.70;8.70;;;;;;;25.22;41.12;100857.02;114527;1207;58359;-80
2021/09/16 12:08:33;;;;;;;18.00;8.50;;;;;;;25.25;41.17;100853.33;114502;1208;74532;-80
2021/09/16 12:11:11;;;;;;;32.70;10.00;;;;;;;25.30;40.90;100853.84;114388;1208;73468;-80
2021/09/16 12:13:46;;;;;;;30.00;9.00;;;;;;;25.31;41.03;100851.01;114468;1207;60209;-81
2021/09/16 12:16:35;;;;;;;29.40;10.80;;;;;;;25.32;41.10;100850.42;114541;1207;60003;-80
2021/09/16 12:19:08;;;;;;;29.40;9.10;;;;;;;25.32;41.20;100848.29;113807;1208;73351;-81
2021/09/16 12:21:51;;;;;;;27.80;8.20;;;;;;;25.31;41.21;100843.80;113292;1208;74228;-80
2021/09/16 12:24:28;;;;;;;33.30;8.00;;;;;;;25.30;41.30;100842.27;114241;1208;60150;-81
2021/09/16 12:27:19;;;;;;;28.20;8.20;;;;;;;25.29;41.49;100840.93;113522;1208;60182;-84
2021/09/16 12:29:50;;;;;;;19.50;7.40;;;;;;;25.28;41.59;100842.64;112936;1210;73874;-81
2021/09/16 12:32:39;;;;;;;21.10;8.70;;;;;;;25.26;41.60;100842.40;112926;1211;73675;-82
2021/09/16 12:35:34;;;;;;;16.80;7.50;;;;;;;25.25;41.68;100840.58;112975;1212;61255;-81
2021/09/16 12:38:40;;;;;;;;;;;;;;;;;;;;;
2021/09/16 12:42:04;;;;;;;;;;;;;;;;;;;;;
2021/09/16 12:45:13;;;;;;;18.60;7.40;;;;;;;25.17;41.84;100826.70;112814;1216;72746;-80
2021/09/16 12:48:14;;;;;;;12.00;7.10;;;;;;;25.16;41.82;100821.41;112808;1217;61146;-81
2021/09/16 12:51:29;;;;;;;15.40;7.30;;;;;;;25.14;42.01;100820.30;112624;1219;61571;-85
2021/09/16 12:54:32;;;;;;;;;;;;;;;;;;;;;
2021/09/16 12:57:48;;;;;;;18.10;8.10;;;;;;;25.12;42.06;100820.66;112297;1222;74331;-83
2021/09/16 13:00:40;;;;;;;19.60;7.40;;;;;;;25.10;42.01;100821.50;112504;1221;61233;-83
2021/09/16 13:03:26;;;;;;;13.40;7.20;;;;;;;25.10;41.94;100821.53;112313;1221;60359;-82
2021/09/16 13:06:41;;;;;;;18.10;7.80;;;;;;;25.09;42.17;100816.61;111891;1225;71185;-85
2021/09/16 13:09:40;;;;;;;16.60;7.40;;;;;;;25.09;42.11;100813.16;112314;1223;73535;-82
2021/09/16 13:12:52;;;;;;;13.00;7.40;;;;;;;25.08;42.21;100812.00;111822;1227;60203;-85
2021/09/16 13:15:44;;;;;;;15.10;6.90;;;;;;;25.07;42.11;100808.15;111273;1228;60272;-82
2021/09/16 13:18:30;;;;;;;11.20;7.10;;;;;;;25.07;41.98;100810.10;111557;1228;73478;-81
2021/09/16 13:21:15;;;;;;;14.50;7.40;;;;;;;25.07;42.00;100808.33;111516;1228;75113;-81
2021/09/16 13:24:05;;;;;;;11.80;7.10;;;;;;;25.07;42.06;100806.54;111508;1227;60136;-81
2021/09/16 13:26:54;;;;;;;12.80;6.50;;;;;;;25.07;41.97;100806.84;111449;1228;60160;-81
2021/09/16 13:30:01;;;;;;;;;;;;;;;;;;;;;
2021/09/16 13:32:50;;;;;;;11.80;7.50;;;;;;;25.06;41.98;100803.67;112176;1224;73968;-84
2021/09/16 13:35:30;;;;;;;;;;;;;;;;;;;;;
2021/09/16 13:38:07;;;;;;;14.50;7.20;;;;;;;25.06;42.07;100799.56;112270;1222;61468;-81
2021/09/16 13:40:53;;;;;;;15.10;7.20;;;;;;;25.06;42.03;100799.20;112443;1219;73701;-82